sensor_id;sensor_type;location;lat;lon;timestamp;P1;durP1;ratioP1;P2;durP2;ratioP2
8331;SDS011;4203;48.144;14.118;2023-02-28T00:01:10;9.27;;;5.93;;
8331;SDS011;4203;48.144;14.118;2023-02-28T00:03:38;10.33;;;7.03;;
8331;SDS011;4203;48.144;14.118;2023-02-28T00:06:05;12.70;;;6.40;;
8331;SDS011;4203;48.144;14.118;2023-02-28T00:08:37;9.73;;;6.93;;
8331;SDS011;4203;48.144;14.118;2023-02-28T00:11:05;10.93;;;7.17;;
8331;SDS011;4203;48.144;14.118;2023-02-28T00:13:34;7.53;;;6.73;;
8331;SDS011;4203;48.144;14.118;2023-02-28T00:16:02;10.37;;;7.17;;
8331;SDS011;4203;48.144;14.118;2023-02-28T00:18:32;10.87;;;7.70;;
8331;SDS011;4203;48.144;14.118;2023-02-28T00:20:59;11.43;;;8.30;;
8331;SDS011;4203;48.144;14.118;2023-02-28T00:23:26;11.10;;;7.77;;
8331;SDS011;4203;48.144;14.118;2023-02-28T00:25:55;12.57;;;8.67;;
8331;SDS011;4203;48.144;14.118;2023-02-28T00:28:22;10.87;;;8.20;;
8331;SDS011;4203;48.144;14.118;2023-02-28T00:30:50;12.33;;;8.50;;
8331;SDS011;4203;48.144;14.118;2023-02-28T00:33:17;11.57;;;8.47;;
8331;SDS011;4203;48.144;14.118;2023-02-28T00:35:45;15.27;;;8.53;;
8331;SDS011;4203;48.144;14.118;2023-02-28T00:38:13;12.20;;;8.50;;
8331;SDS011;4203;48.144;14.118;2023-02-28T00:40:41;13.10;;;8.90;;
8331;SDS011;4203;48.144;14.118;2023-02-28T00:43:09;14.10;;;9.10;;
8331;SDS011;4203;48.144;14.118;2023-02-28T00:45:36;14.17;;;9.33;;
8331;SDS011;4203;48.144;14.118;2023-02-28T00:48:04;15.03;;;8.20;;
8331;SDS011;4203;48.144;14.118;2023-02-28T00:50:31;14.67;;;9.30;;
8331;SDS011;4203;48.144;14.118;2023-02-28T00:52:58;11.80;;;9.13;;
8331;SDS011;4203;48.144;14.118;2023-02-28T00:55:26;11.17;;;8.80;;
8331;SDS011;4203;48.144;14.118;2023-02-28T00:57:53;12.17;;;9.20;;
8331;SDS011;4203;48.144;14.118;2023-02-28T01:00:21;16.03;;;9.77;;
8331;SDS011;4203;48.144;14.118;2023-02-28T01:02:49;13.43;;;9.47;;
8331;SDS011;4203;48.144;14.118;2023-02-28T01:05:16;11.17;;;9.10;;
8331;SDS011;4203;48.144;14.118;2023-02-28T01:07:43;11.37;;;8.33;;
8331;SDS011;4203;48.144;14.118;2023-02-28T01:10:10;13.97;;;9.60;;
8331;SDS011;4203;48.144;14.118;2023-02-28T01:12:37;11.77;;;9.23;;
8331;SDS011;4203;48.144;14.118;2023-02-28T01:15:05;13.90;;;8.90;;
8331;SDS011;4203;48.144;14.118;2023-02-28T01:17:35;12.60;;;8.87;;
8331;SDS011;4203;48.144;14.118;2023-02-28T01:20:03;14.30;;;9.30;;
8331;SDS011;4203;48.144;14.118;2023-02-28T01:22:30;13.47;;;8.63;;
8331;SDS011;4203;48.144;14.118;2023-02-28T01:24:57;12.63;;;9.50;;
8331;SDS011;4203;48.144;14.118;2023-02-28T01:27:24;12.73;;;8.93;;
8331;SDS011;4203;48.144;14.118;2023-02-28T01:29:52;14.30;;;9.73;;
8331;SDS011;4203;48.144;14.118;2023-02-28T01:32:19;13.97;;;9.57;;
8331;SDS011;4203;48.144;14.118;2023-02-28T01:34:47;15.37;;;9.40;;
8331;SDS011;4203;48.144;14.118;2023-02-28T01:37:15;13.33;;;9.27;;
8331;SDS011;4203;48.144;14.118;2023-02-28T01:39:42;14.00;;;9.87;;
8331;SDS011;4203;48.144;14.118;2023-02-28T01:42:09;14.70;;;9.73;;
8331;SDS011;4203;48.144;14.118;2023-02-28T01:44:55;16.67;;;10.73;;
8331;SDS011;4203;48.144;14.118;2023-02-28T01:47:25;13.07;;;10.00;;
8331;SDS011;4203;48.144;14.118;2023-02-28T01:49:57;14.37;;;9.53;;
8331;SDS011;4203;48.144;14.118;2023-02-28T01:52:26;15.43;;;10.10;;
8331;SDS011;4203;48.144;14.118;2023-02-28T01:54:55;15.20;;;10.23;;
8331;SDS011;4203;48.144;14.118;2023-02-28T01:57:25;15.70;;;9.60;;
8331;SDS011;4203;48.144;14.118;2023-02-28T01:59:59;18.83;;;10.77;;
8331;SDS011;4203;48.144;14.118;2023-02-28T02:02:32;14.07;;;10.30;;
8331;SDS011;4203;48.144;14.118;2023-02-28T02:05:04;17.83;;;10.00;;
8331;SDS011;4203;48.144;14.118;2023-02-28T02:07:33;14.97;;;10.67;;
8331;SDS011;4203;48.144;14.118;2023-02-28T02:10:04;14.97;;;9.50;;
8331;SDS011;4203;48.144;14.118;2023-02-28T02:12:41;16.87;;;11.50;;
8331;SDS011;4203;48.144;14.118;2023-02-28T02:15:23;14.63;;;10.53;;
8331;SDS011;4203;48.144;14.118;2023-02-28T02:17:53;13.63;;;9.13;;
8331;SDS011;4203;48.144;14.118;2023-02-28T02:23:41;13.60;;;10.17;;
8331;SDS011;4203;48.144;14.118;2023-02-28T02:29:34;16.60;;;9.77;;
8331;SDS011;4203;48.144;14.118;2023-02-28T02:32:26;14.50;;;10.57;;
8331;SDS011;4203;48.144;14.118;2023-02-28T02:35:12;18.97;;;11.10;;
8331;SDS011;4203;48.144;14.118;2023-02-28T02:37:47;18.37;;;10.60;;
8331;SDS011;4203;48.144;14.118;2023-02-28T02:40:19;16.13;;;10.53;;
8331;SDS011;4203;48.144;14.118;2023-02-28T02:42:50;14.20;;;10.13;;
8331;SDS011;4203;48.144;14.118;2023-02-28T02:45:23;13.90;;;10.80;;
8331;SDS011;4203;48.144;14.118;2023-02-28T02:47:53;16.77;;;10.53;;
8331;SDS011;4203;48.144;14.118;2023-02-28T02:50:25;14.70;;;10.60;;
8331;SDS011;4203;48.144;14.118;2023-02-28T02:52:57;15.30;;;10.53;;
8331;SDS011;4203;48.144;14.118;2023-02-28T02:55:27;18.93;;;11.57;;
8331;SDS011;4203;48.144;14.118;2023-02-28T02:57:57;16.87;;;10.97;;
8331;SDS011;4203;48.144;14.118;2023-02-28T03:00:29;14.57;;;10.43;;
8331;SDS011;4203;48.144;14.118;2023-02-28T03:03:02;15.97;;;10.53;;
8331;SDS011;4203;48.144;14.118;2023-02-28T03:05:34;15.90;;;10.57;;
8331;SDS011;4203;48.144;14.118;2023-02-28T03:08:07;22.37;;;10.87;;
8331;SDS011;4203;48.144;14.118;2023-02-28T03:10:36;18.40;;;10.90;;
8331;SDS011;4203;48.144;14.118;2023-02-28T03:13:09;16.83;;;10.77;;
8331;SDS011;4203;48.144;14.118;2023-02-28T03:15:46;16.10;;;11.17;;
8331;SDS011;4203;48.144;14.118;2023-02-28T03:18:24;16.07;;;11.10;;
8331;SDS011;4203;48.144;14.118;2023-02-28T03:21:02;17.77;;;10.87;;
8331;SDS011;4203;48.144;14.118;2023-02-28T03:23:42;19.33;;;10.60;;
8331;SDS011;4203;48.144;14.118;2023-02-28T03:26:16;15.30;;;10.67;;
8331;SDS011;4203;48.144;14.118;2023-02-28T03:28:49;14.60;;;10.30;;
8331;SDS011;4203;48.144;14.118;2023-02-28T03:31:21;20.73;;;11.17;;
8331;SDS011;4203;48.144;14.118;2023-02-28T03:33:55;15.13;;;10.87;;
8331;SDS011;4203;48.144;14.118;2023-02-28T03:36:29;14.50;;;10.30;;
8331;SDS011;4203;48.144;14.118;2023-02-28T03:39:03;16.30;;;10.40;;
8331;SDS011;4203;48.144;14.118;2023-02-28T03:41:35;15.60;;;10.80;;
8331;SDS011;4203;48.144;14.118;2023-02-28T03:44:07;16.33;;;10.50;;
8331;SDS011;4203;48.144;14.118;2023-02-28T03:46:41;18.50;;;10.40;;
8331;SDS011;4203;48.144;14.118;2023-02-28T03:49:13;18.47;;;10.57;;
8331;SDS011;4203;48.144;14.118;2023-02-28T03:51:47;15.43;;;10.47;;
8331;SDS011;4203;48.144;14.118;2023-02-28T03:54:18;15.67;;;11.63;;
8331;SDS011;4203;48.144;14.118;2023-02-28T03:56:51;16.07;;;10.60;;
8331;SDS011;4203;48.144;14.118;2023-02-28T03:59:27;15.23;;;10.27;;
8331;SDS011;4203;48.144;14.118;2023-02-28T04:01:56;16.70;;;11.00;;
8331;SDS011;4203;48.144;14.118;2023-02-28T04:04:24;15.97;;;10.80;;
8331;SDS011;4203;48.144;14.118;2023-02-28T04:06:53;16.20;;;10.90;;
8331;SDS011;4203;48.144;14.118;2023-02-28T04:09:28;17.60;;;11.67;;
8331;SDS011;4203;48.144;14.118;2023-02-28T04:11:55;17.67;;;10.70;;
8331;SDS011;4203;48.144;14.118;2023-02-28T04:14:22;16.80;;;10.13;;
8331;SDS011;4203;48.144;14.118;2023-02-28T04:16:50;16.37;;;10.50;;
8331;SDS011;4203;48.144;14.118;2023-02-28T04:19:17;16.87;;;10.43;;
8331;SDS011;4203;48.144;14.118;2023-02-28T04:21:45;14.90;;;10.73;;
8331;SDS011;4203;48.144;14.118;2023-02-28T04:24:15;15.73;;;11.03;;
8331;SDS011;4203;48.144;14.118;2023-02-28T04:26:45;18.10;;;10.80;;
8331;SDS011;4203;48.144;14.118;2023-02-28T04:29:14;14.23;;;10.00;;
8331;SDS011;4203;48.144;14.118;2023-02-28T04:31:44;16.97;;;10.77;;
8331;SDS011;4203;48.144;14.118;2023-02-28T04:34:11;15.03;;;10.63;;
8331;SDS011;4203;48.144;14.118;2023-02-28T04:36:38;17.30;;;10.73;;
8331;SDS011;4203;48.144;14.118;2023-02-28T04:39:06;16.63;;;11.23;;
8331;SDS011;4203;48.144;14.118;2023-02-28T04:41:36;17.80;;;11.87;;
8331;SDS011;4203;48.144;14.118;2023-02-28T04:44:03;17.73;;;11.03;;
8331;SDS011;4203;48.144;14.118;2023-02-28T04:46:31;16.20;;;10.90;;
8331;SDS011;4203;48.144;14.118;2023-02-28T04:48:58;14.60;;;9.93;;
8331;SDS011;4203;48.144;14.118;2023-02-28T04:51:25;15.87;;;11.27;;
8331;SDS011;4203;48.144;14.118;2023-02-28T04:53:52;16.50;;;10.97;;
8331;SDS011;4203;48.144;14.118;2023-02-28T04:56:19;24.97;;;14.93;;
8331;SDS011;4203;48.144;14.118;2023-02-28T04:58:48;16.57;;;11.80;;
8331;SDS011;4203;48.144;14.118;2023-02-28T05:01:19;17.33;;;10.60;;
8331;SDS011;4203;48.144;14.118;2023-02-28T05:03:49;19.93;;;11.87;;
8331;SDS011;4203;48.144;14.118;2023-02-28T05:06:17;19.30;;;11.97;;
8331;SDS011;4203;48.144;14.118;2023-02-28T05:08:45;19.43;;;11.13;;
8331;SDS011;4203;48.144;14.118;2023-02-28T05:11:16;17.93;;;10.03;;
8331;SDS011;4203;48.144;14.118;2023-02-28T05:13:45;16.37;;;10.90;;
8331;SDS011;4203;48.144;14.118;2023-02-28T05:16:15;20.50;;;11.33;;
8331;SDS011;4203;48.144;14.118;2023-02-28T05:18:43;17.73;;;11.73;;
8331;SDS011;4203;48.144;14.118;2023-02-28T05:23:57;17.50;;;11.57;;
8331;SDS011;4203;48.144;14.118;2023-02-28T05:26:25;16.07;;;11.00;;
8331;SDS011;4203;48.144;14.118;2023-02-28T05:28:53;18.23;;;12.07;;
8331;SDS011;4203;48.144;14.118;2023-02-28T05:31:22;17.17;;;11.60;;
8331;SDS011;4203;48.144;14.118;2023-02-28T05:33:49;18.47;;;11.93;;
8331;SDS011;4203;48.144;14.118;2023-02-28T05:36:16;18.37;;;11.47;;
8331;SDS011;4203;48.144;14.118;2023-02-28T05:38:45;17.47;;;11.37;;
8331;SDS011;4203;48.144;14.118;2023-02-28T05:41:14;18.90;;;10.47;;
8331;SDS011;4203;48.144;14.118;2023-02-28T05:43:41;18.67;;;12.77;;
8331;SDS011;4203;48.144;14.118;2023-02-28T05:46:09;18.47;;;11.70;;
8331;SDS011;4203;48.144;14.118;2023-02-28T05:48:42;18.03;;;11.77;;
8331;SDS011;4203;48.144;14.118;2023-02-28T05:51:12;20.03;;;11.57;;
8331;SDS011;4203;48.144;14.118;2023-02-28T05:53:39;17.33;;;11.50;;
8331;SDS011;4203;48.144;14.118;2023-02-28T05:56:06;17.87;;;11.47;;
8331;SDS011;4203;48.144;14.118;2023-02-28T05:58:33;17.47;;;11.00;;
8331;SDS011;4203;48.144;14.118;2023-02-28T06:01:18;18.77;;;12.03;;
8331;SDS011;4203;48.144;14.118;2023-02-28T06:03:49;22.43;;;11.37;;
8331;SDS011;4203;48.144;14.118;2023-02-28T06:06:16;17.63;;;11.60;;
8331;SDS011;4203;48.144;14.118;2023-02-28T06:08:43;18.57;;;11.10;;
8331;SDS011;4203;48.144;14.118;2023-02-28T06:11:10;18.37;;;11.60;;
8331;SDS011;4203;48.144;14.118;2023-02-28T06:13:38;20.50;;;12.13;;
8331;SDS011;4203;48.144;14.118;2023-02-28T06:16:05;19.23;;;11.50;;
8331;SDS011;4203;48.144;14.118;2023-02-28T06:18:34;16.23;;;11.07;;
8331;SDS011;4203;48.144;14.118;2023-02-28T06:21:03;17.70;;;11.70;;
8331;SDS011;4203;48.144;14.118;2023-02-28T06:23:30;15.50;;;10.77;;
8331;SDS011;4203;48.144;14.118;2023-02-28T06:25:57;17.60;;;11.17;;
8331;SDS011;4203;48.144;14.118;2023-02-28T06:28:25;18.03;;;12.07;;
8331;SDS011;4203;48.144;14.118;2023-02-28T06:30:52;18.37;;;11.03;;
8331;SDS011;4203;48.144;14.118;2023-02-28T06:33:19;17.57;;;11.03;;
8331;SDS011;4203;48.144;14.118;2023-02-28T06:35:46;18.90;;;11.60;;
8331;SDS011;4203;48.144;14.118;2023-02-28T06:38:17;16.03;;;10.97;;
8331;SDS011;4203;48.144;14.118;2023-02-28T06:40:44;17.53;;;11.53;;
8331;SDS011;4203;48.144;14.118;2023-02-28T06:43:18;18.87;;;11.40;;
8331;SDS011;4203;48.144;14.118;2023-02-28T06:45:45;15.40;;;10.73;;
8331;SDS011;4203;48.144;14.118;2023-02-28T06:48:12;17.20;;;11.27;;
8331;SDS011;4203;48.144;14.118;2023-02-28T06:50:40;18.80;;;11.40;;
8331;SDS011;4203;48.144;14.118;2023-02-28T06:53:07;19.23;;;11.63;;
8331;SDS011;4203;48.144;14.118;2023-02-28T06:55:35;18.60;;;11.93;;
8331;SDS011;4203;48.144;14.118;2023-02-28T06:58:04;18.10;;;10.60;;
8331;SDS011;4203;48.144;14.118;2023-02-28T07:00:39;16.67;;;11.50;;
8331;SDS011;4203;48.144;14.118;2023-02-28T07:03:07;18.97;;;12.03;;
8331;SDS011;4203;48.144;14.118;2023-02-28T07:05:34;19.23;;;11.20;;
8331;SDS011;4203;48.144;14.118;2023-02-28T07:08:02;19.80;;;12.07;;
8331;SDS011;4203;48.144;14.118;2023-02-28T07:10:29;19.03;;;11.43;;
8331;SDS011;4203;48.144;14.118;2023-02-28T07:12:58;20.43;;;12.07;;
8331;SDS011;4203;48.144;14.118;2023-02-28T07:15:25;20.10;;;12.07;;
8331;SDS011;4203;48.144;14.118;2023-02-28T07:17:54;17.70;;;11.73;;
8331;SDS011;4203;48.144;14.118;2023-02-28T07:20:21;18.37;;;11.40;;
8331;SDS011;4203;48.144;14.118;2023-02-28T07:22:49;17.03;;;11.77;;
8331;SDS011;4203;48.144;14.118;2023-02-28T07:25:21;19.43;;;11.87;;
8331;SDS011;4203;48.144;14.118;2023-02-28T07:27:48;18.60;;;10.50;;
8331;SDS011;4203;48.144;14.118;2023-02-28T07:30:17;16.57;;;11.37;;
8331;SDS011;4203;48.144;14.118;2023-02-28T07:32:44;17.27;;;11.90;;
8331;SDS011;4203;48.144;14.118;2023-02-28T07:35:12;18.43;;;11.80;;
8331;SDS011;4203;48.144;14.118;2023-02-28T07:37:40;18.83;;;11.80;;
8331;SDS011;4203;48.144;14.118;2023-02-28T07:40:08;17.30;;;11.60;;
8331;SDS011;4203;48.144;14.118;2023-02-28T07:42:38;17.07;;;10.93;;
8331;SDS011;4203;48.144;14.118;2023-02-28T07:45:06;17.97;;;10.50;;
8331;SDS011;4203;48.144;14.118;2023-02-28T07:47:38;18.13;;;11.87;;
8331;SDS011;4203;48.144;14.118;2023-02-28T07:50:05;13.77;;;10.87;;
8331;SDS011;4203;48.144;14.118;2023-02-28T07:52:32;16.97;;;10.80;;
8331;SDS011;4203;48.144;14.118;2023-02-28T07:54:59;14.67;;;10.77;;
8331;SDS011;4203;48.144;14.118;2023-02-28T07:57:27;16.57;;;11.17;;
8331;SDS011;4203;48.144;14.118;2023-02-28T07:59:54;13.57;;;10.40;;
8331;SDS011;4203;48.144;14.118;2023-02-28T08:02:21;12.93;;;9.87;;
8331;SDS011;4203;48.144;14.118;2023-02-28T08:04:50;17.70;;;11.50;;
8331;SDS011;4203;48.144;14.118;2023-02-28T08:07:17;20.10;;;10.87;;
8331;SDS011;4203;48.144;14.118;2023-02-28T08:09:44;14.87;;;10.73;;
8331;SDS011;4203;48.144;14.118;2023-02-28T08:12:12;17.30;;;10.90;;
8331;SDS011;4203;48.144;14.118;2023-02-28T08:14:39;17.70;;;10.77;;
8331;SDS011;4203;48.144;14.118;2023-02-28T08:17:06;19.57;;;11.83;;
8331;SDS011;4203;48.144;14.118;2023-02-28T08:19:33;16.00;;;11.20;;
8331;SDS011;4203;48.144;14.118;2023-02-28T08:22:01;14.57;;;10.97;;
8331;SDS011;4203;48.144;14.118;2023-02-28T08:24:28;13.97;;;10.03;;
8331;SDS011;4203;48.144;14.118;2023-02-28T08:26:56;16.50;;;10.10;;
8331;SDS011;4203;48.144;14.118;2023-02-28T08:29:23;13.60;;;10.13;;
8331;SDS011;4203;48.144;14.118;2023-02-28T08:31:50;12.13;;;10.00;;
8331;SDS011;4203;48.144;14.118;2023-02-28T08:34:17;13.33;;;9.90;;
8331;SDS011;4203;48.144;14.118;2023-02-28T08:36:45;16.17;;;11.13;;
8331;SDS011;4203;48.144;14.118;2023-02-28T08:39:13;14.07;;;10.73;;
8331;SDS011;4203;48.144;14.118;2023-02-28T08:41:41;14.67;;;10.17;;
8331;SDS011;4203;48.144;14.118;2023-02-28T08:44:09;13.10;;;10.20;;
8331;SDS011;4203;48.144;14.118;2023-02-28T08:46:36;12.63;;;9.63;;
8331;SDS011;4203;48.144;14.118;2023-02-28T08:49:04;15.13;;;10.60;;
8331;SDS011;4203;48.144;14.118;2023-02-28T08:51:32;12.80;;;10.17;;
8331;SDS011;4203;48.144;14.118;2023-02-28T08:53:59;14.47;;;10.13;;
8331;SDS011;4203;48.144;14.118;2023-02-28T08:56:28;13.50;;;9.70;;
8331;SDS011;4203;48.144;14.118;2023-02-28T08:58:56;12.67;;;9.90;;
8331;SDS011;4203;48.144;14.118;2023-02-28T09:01:24;12.47;;;10.37;;
8331;SDS011;4203;48.144;14.118;2023-02-28T09:03:53;12.77;;;10.03;;
8331;SDS011;4203;48.144;14.118;2023-02-28T09:06:21;13.10;;;9.90;;
8331;SDS011;4203;48.144;14.118;2023-02-28T09:08:50;13.33;;;9.60;;
8331;SDS011;4203;48.144;14.118;2023-02-28T09:11:17;12.13;;;9.80;;
8331;SDS011;4203;48.144;14.118;2023-02-28T09:13:46;14.07;;;10.30;;
8331;SDS011;4203;48.144;14.118;2023-02-28T09:16:14;13.60;;;10.03;;
8331;SDS011;4203;48.144;14.118;2023-02-28T09:18:42;13.00;;;10.77;;
8331;SDS011;4203;48.144;14.118;2023-02-28T09:21:11;15.03;;;10.67;;
8331;SDS011;4203;48.144;14.118;2023-02-28T09:23:39;12.57;;;10.50;;
8331;SDS011;4203;48.144;14.118;2023-02-28T09:26:07;11.90;;;9.27;;
8331;SDS011;4203;48.144;14.118;2023-02-28T09:28:39;13.13;;;10.50;;
8331;SDS011;4203;48.144;14.118;2023-02-28T09:31:10;12.87;;;9.33;;
8331;SDS011;4203;48.144;14.118;2023-02-28T09:33:39;14.77;;;10.00;;
8331;SDS011;4203;48.144;14.118;2023-02-28T09:36:07;12.90;;;9.83;;
8331;SDS011;4203;48.144;14.118;2023-02-28T09:38:34;14.57;;;9.87;;
8331;SDS011;4203;48.144;14.118;2023-02-28T09:41:02;13.40;;;9.67;;
8331;SDS011;4203;48.144;14.118;2023-02-28T09:43:37;12.83;;;10.00;;
8331;SDS011;4203;48.144;14.118;2023-02-28T09:46:11;13.03;;;10.10;;
8331;SDS011;4203;48.144;14.118;2023-02-28T09:48:53;12.00;;;10.23;;
8331;SDS011;4203;48.144;14.118;2023-02-28T09:54:17;11.50;;;10.20;;
8331;SDS011;4203;48.144;14.118;2023-02-28T09:56:48;11.90;;;9.53;;
8331;SDS011;4203;48.144;14.118;2023-02-28T09:59:23;12.23;;;10.03;;
8331;SDS011;4203;48.144;14.118;2023-02-28T10:02:02;13.10;;;10.00;;
8331;SDS011;4203;48.144;14.118;2023-02-28T10:04:41;12.20;;;9.53;;
8331;SDS011;4203;48.144;14.118;2023-02-28T10:07:18;14.47;;;11.00;;
8331;SDS011;4203;48.144;14.118;2023-02-28T10:10:04;13.40;;;10.00;;
8331;SDS011;4203;48.144;14.118;2023-02-28T10:12:41;13.00;;;10.63;;
8331;SDS011;4203;48.144;14.118;2023-02-28T10:15:13;11.83;;;9.30;;
8331;SDS011;4203;48.144;14.118;2023-02-28T10:17:43;12.23;;;10.10;;
8331;SDS011;4203;48.144;14.118;2023-02-28T10:20:16;11.67;;;9.80;;
8331;SDS011;4203;48.144;14.118;2023-02-28T10:22:50;12.07;;;9.50;;
8331;SDS011;4203;48.144;14.118;2023-02-28T10:25:21;12.67;;;10.43;;
8331;SDS011;4203;48.144;14.118;2023-02-28T10:27:50;12.13;;;10.20;;
8331;SDS011;4203;48.144;14.118;2023-02-28T10:30:20;12.90;;;10.10;;
8331;SDS011;4203;48.144;14.118;2023-02-28T10:32:50;12.40;;;9.97;;
8331;SDS011;4203;48.144;14.118;2023-02-28T10:35:20;13.07;;;10.20;;
8331;SDS011;4203;48.144;14.118;2023-02-28T10:37:49;11.03;;;9.47;;
8331;SDS011;4203;48.144;14.118;2023-02-28T10:40:28;12.37;;;9.97;;
8331;SDS011;4203;48.144;14.118;2023-02-28T10:42:58;13.17;;;10.37;;
8331;SDS011;4203;48.144;14.118;2023-02-28T10:45:28;11.90;;;9.00;;
8331;SDS011;4203;48.144;14.118;2023-02-28T10:48:01;12.20;;;9.53;;
8331;SDS011;4203;48.144;14.118;2023-02-28T10:50:32;11.53;;;9.97;;
8331;SDS011;4203;48.144;14.118;2023-02-28T10:56:00;10.55;;;9.45;;
8331;SDS011;4203;48.144;14.118;2023-02-28T10:58:29;13.48;;;9.25;;
8331;SDS011;4203;48.144;14.118;2023-02-28T11:01:08;10.85;;;9.50;;
8331;SDS011;4203;48.144;14.118;2023-02-28T11:03:42;10.40;;;9.30;;
8331;SDS011;4203;48.144;14.118;2023-02-28T11:06:13;10.83;;;9.73;;
8331;SDS011;4203;48.144;14.118;2023-02-28T11:08:45;10.00;;;9.00;;
8331;SDS011;4203;48.144;14.118;2023-02-28T11:11:14;10.23;;;8.95;;
8331;SDS011;4203;48.144;14.118;2023-02-28T11:13:43;9.35;;;8.20;;
8331;SDS011;4203;48.144;14.118;2023-02-28T11:16:12;12.53;;;9.90;;
8331;SDS011;4203;48.144;14.118;2023-02-28T11:18:42;12.60;;;9.63;;
8331;SDS011;4203;48.144;14.118;2023-02-28T11:21:23;10.98;;;9.85;;
8331;SDS011;4203;48.144;14.118;2023-02-28T11:23:54;10.50;;;9.40;;
8331;SDS011;4203;48.144;14.118;2023-02-28T11:26:36;9.30;;;8.30;;
8331;SDS011;4203;48.144;14.118;2023-02-28T11:29:10;9.63;;;8.63;;
8331;SDS011;4203;48.144;14.118;2023-02-28T11:32:04;11.48;;;9.45;;
8331;SDS011;4203;48.144;14.118;2023-02-28T11:34:39;10.23;;;9.13;;
8331;SDS011;4203;48.144;14.118;2023-02-28T11:37:10;10.70;;;9.60;;
8331;SDS011;4203;48.144;14.118;2023-02-28T11:39:39;9.52;;;8.52;;
8331;SDS011;4203;48.144;14.118;2023-02-28T11:45:19;10.00;;;9.00;;
8331;SDS011;4203;48.144;14.118;2023-02-28T11:47:57;9.73;;;8.77;;
8331;SDS011;4203;48.144;14.118;2023-02-28T11:50:47;10.93;;;9.43;;
8331;SDS011;4203;48.144;14.118;2023-02-28T11:53:27;9.70;;;8.70;;
8331;SDS011;4203;48.144;14.118;2023-02-28T11:56:15;9.30;;;8.40;;
8331;SDS011;4203;48.144;14.118;2023-02-28T11:58:51;10.30;;;8.95;;
8331;SDS011;4203;48.144;14.118;2023-02-28T12:01:30;9.13;;;8.23;;
8331;SDS011;4203;48.144;14.118;2023-02-28T12:04:12;9.88;;;8.75;;
8331;SDS011;4203;48.144;14.118;2023-02-28T12:06:52;10.95;;;9.95;;
8331;SDS011;4203;48.144;14.118;2023-02-28T12:12:20;13.25;;;9.63;;
8331;SDS011;4203;48.144;14.118;2023-02-28T12:14:59;10.98;;;9.20;;
8331;SDS011;4203;48.144;14.118;2023-02-28T12:17:44;11.10;;;9.80;;
8331;SDS011;4203;48.144;14.118;2023-02-28T12:20:25;10.68;;;9.57;;
8331;SDS011;4203;48.144;14.118;2023-02-28T12:23:04;10.63;;;9.52;;
8331;SDS011;4203;48.144;14.118;2023-02-28T12:25:55;11.73;;;10.27;;
8331;SDS011;4203;48.144;14.118;2023-02-28T12:28:39;10.82;;;9.43;;
8331;SDS011;4203;48.144;14.118;2023-02-28T12:31:09;11.45;;;10.00;;
8331;SDS011;4203;48.144;14.118;2023-02-28T12:33:45;11.70;;;9.18;;
8331;SDS011;4203;48.144;14.118;2023-02-28T12:36:18;10.07;;;9.07;;
8331;SDS011;4203;48.144;14.118;2023-02-28T12:38:51;10.73;;;9.20;;
8331;SDS011;4203;48.144;14.118;2023-02-28T12:41:23;10.35;;;9.35;;
8331;SDS011;4203;48.144;14.118;2023-02-28T12:43:57;10.30;;;9.02;;
8331;SDS011;4203;48.144;14.118;2023-02-28T12:46:30;10.27;;;9.25;;
8331;SDS011;4203;48.144;14.118;2023-02-28T12:49:00;11.82;;;10.13;;
8331;SDS011;4203;48.144;14.118;2023-02-28T12:51:31;11.18;;;9.88;;
8331;SDS011;4203;48.144;14.118;2023-02-28T12:54:04;12.18;;;9.25;;
8331;SDS011;4203;48.144;14.118;2023-02-28T12:56:43;10.38;;;9.07;;
8331;SDS011;4203;48.144;14.118;2023-02-28T12:59:20;10.75;;;9.65;;
8331;SDS011;4203;48.144;14.118;2023-02-28T13:01:56;10.90;;;9.73;;
8331;SDS011;4203;48.144;14.118;2023-02-28T13:10:38;10.93;;;9.77;;
8331;SDS011;4203;48.144;14.118;2023-02-28T13:13:11;10.73;;;9.73;;
8331;SDS011;4203;48.144;14.118;2023-02-28T13:15:49;11.68;;;10.48;;
8331;SDS011;4203;48.144;14.118;2023-02-28T13:18:27;13.77;;;10.00;;
8331;SDS011;4203;48.144;14.118;2023-02-28T13:20:57;11.55;;;9.38;;
8331;SDS011;4203;48.144;14.118;2023-02-28T13:23:40;11.55;;;9.05;;
8331;SDS011;4203;48.144;14.118;2023-02-28T13:26:29;10.90;;;9.18;;
8331;SDS011;4203;48.144;14.118;2023-02-28T13:29:35;10.43;;;9.32;;
8331;SDS011;4203;48.144;14.118;2023-02-28T13:32:19;11.18;;;10.05;;
8331;SDS011;4203;48.144;14.118;2023-02-28T13:35:15;11.60;;;10.40;;
8331;SDS011;4203;48.144;14.118;2023-02-28T13:38:12;11.48;;;10.32;;
8331;SDS011;4203;48.144;14.118;2023-02-28T13:40:47;10.88;;;9.82;;
8331;SDS011;4203;48.144;14.118;2023-02-28T13:43:17;10.77;;;9.68;;
8331;SDS011;4203;48.144;14.118;2023-02-28T13:46:05;11.38;;;10.18;;
8331;SDS011;4203;48.144;14.118;2023-02-28T13:48:36;10.50;;;9.50;;
8331;SDS011;4203;48.144;14.118;2023-02-28T13:54:03;11.18;;;10.07;;
8331;SDS011;4203;48.144;14.118;2023-02-28T13:56:46;10.55;;;9.45;;
8331;SDS011;4203;48.144;14.118;2023-02-28T13:59:22;11.18;;;9.90;;
8331;SDS011;4203;48.144;14.118;2023-02-28T14:02:01;10.48;;;9.30;;
8331;SDS011;4203;48.144;14.118;2023-02-28T14:04:46;11.23;;;9.85;;
8331;SDS011;4203;48.144;14.118;2023-02-28T14:07:20;13.65;;;9.07;;
8331;SDS011;4203;48.144;14.118;2023-02-28T14:09:52;10.60;;;9.50;;
8331;SDS011;4203;48.144;14.118;2023-02-28T14:15:30;9.98;;;8.77;;
8331;SDS011;4203;48.144;14.118;2023-02-28T14:18:14;9.55;;;8.55;;
8331;SDS011;4203;48.144;14.118;2023-02-28T14:20:47;10.75;;;9.63;;
8331;SDS011;4203;48.144;14.118;2023-02-28T14:23:18;10.80;;;9.70;;
8331;SDS011;4203;48.144;14.118;2023-02-28T14:26:00;9.80;;;8.88;;
8331;SDS011;4203;48.144;14.118;2023-02-28T14:28:37;10.50;;;9.50;;
8331;SDS011;4203;48.144;14.118;2023-02-28T14:31:15;10.55;;;9.45;;
8331;SDS011;4203;48.144;14.118;2023-02-28T14:33:57;12.15;;;10.07;;
8331;SDS011;4203;48.144;14.118;2023-02-28T14:36:37;12.27;;;10.50;;
8331;SDS011;4203;48.144;14.118;2023-02-28T14:39:07;12.32;;;10.60;;
8331;SDS011;4203;48.144;14.118;2023-02-28T14:41:40;12.68;;;10.30;;
8331;SDS011;4203;48.144;14.118;2023-02-28T14:44:15;13.07;;;11.23;;
8331;SDS011;4203;48.144;14.118;2023-02-28T14:46:46;14.88;;;12.25;;
8331;SDS011;4203;48.144;14.118;2023-02-28T14:49:17;12.90;;;11.60;;
8331;SDS011;4203;48.144;14.118;2023-02-28T14:51:47;12.33;;;11.03;;
8331;SDS011;4203;48.144;14.118;2023-02-28T14:54:16;12.33;;;10.80;;
8331;SDS011;4203;48.144;14.118;2023-02-28T14:56:49;14.23;;;10.97;;
8331;SDS011;4203;48.144;14.118;2023-02-28T14:59:24;12.33;;;10.73;;
8331;SDS011;4203;48.144;14.118;2023-02-28T15:04:51;15.17;;;10.97;;
8331;SDS011;4203;48.144;14.118;2023-02-28T15:07:20;13.57;;;11.60;;
8331;SDS011;4203;48.144;14.118;2023-02-28T15:10:06;13.90;;;11.40;;
8331;SDS011;4203;48.144;14.118;2023-02-28T15:12:34;13.87;;;11.27;;
8331;SDS011;4203;48.144;14.118;2023-02-28T15:15:03;17.27;;;12.07;;
8331;SDS011;4203;48.144;14.118;2023-02-28T15:17:34;14.23;;;12.20;;
8331;SDS011;4203;48.144;14.118;2023-02-28T15:20:01;14.80;;;11.63;;
8331;SDS011;4203;48.144;14.118;2023-02-28T15:22:30;14.63;;;11.63;;
8331;SDS011;4203;48.144;14.118;2023-02-28T15:25:02;17.03;;;11.93;;
8331;SDS011;4203;48.144;14.118;2023-02-28T15:27:33;18.80;;;12.30;;
8331;SDS011;4203;48.144;14.118;2023-02-28T15:30:07;15.80;;;12.57;;
8331;SDS011;4203;48.144;14.118;2023-02-28T15:32:43;15.23;;;12.43;;
8331;SDS011;4203;48.144;14.118;2023-02-28T15:35:18;17.13;;;12.60;;
8331;SDS011;4203;48.144;14.118;2023-02-28T15:37:48;17.20;;;12.07;;
8331;SDS011;4203;48.144;14.118;2023-02-28T15:40:22;21.03;;;13.37;;
8331;SDS011;4203;48.144;14.118;2023-02-28T15:42:59;18.73;;;13.80;;